Time;durP1;ratioP1;P1;durP2;ratioP2;P2;SDS_P1;SDS_P2;PMS_P1;PMS_P2;Temp;Humidity;BMP_temperature;BMP_pressure;BME280_temperature;BME280_humidity;BME280_pressure;Samples;Min_cycle;Max_cycle;Signal;HPM_P1;HPM_P2
2022/03/07 00:01:40;;;;;;;;;;;1.10;88.10;;;0.16;54.52;97672.09;5010424;28;20446;-46
2022/03/07 00:04:06;;;;;;;;;;;1.10;88.60;;;0.16;54.87;97684.19;5009602;28;19920;-46
2022/03/07 00:06:32;;;;;;;;;;;1.00;89.00;;;0.32;54.96;97685.19;5010148;28;20342;-47
2022/03/07 00:08:57;;;;;;;;;;;1.00;89.30;;;0.29;54.75;97675.66;5009147;28;19917;-46
2022/03/07 00:11:23;;;;;;;;;;;1.10;89.40;;;0.28;54.76;97681.69;5010468;28;19921;-43
2022/03/07 00:13:49;;;;;;;;;;;1.10;89.40;;;0.11;55.62;97680.69;5001927;28;19913;-47
2022/03/07 00:16:15;;;;;;;;;;;1.00;89.70;;;0.09;55.84;97688.47;5005175;28;19925;-44
2022/03/07 00:18:41;;;;;;;;;;;1.00;90.00;;;0.09;56.39;97679.78;5008541;28;19921;-43
2022/03/07 00:21:07;;;;;;;;;;;0.90;90.30;;;-0.01;56.46;97684.03;5006939;28;20287;-45
2022/03/07 00:23:34;;;;;;;;;;;0.90;90.20;;;-0.08;57.22;97674.47;5005252;28;19921;-48
2022/03/07 00:25:59;;;;;;;;;;;0.90;90.70;;;0.09;56.95;97679.78;4987579;28;19927;-42
2022/03/07 00:28:25;;;;;;;;;;;0.90;90.70;;;-0.01;56.93;97678.84;5008028;28;19917;-47
2022/03/07 00:30:50;;;;;;;;;;;0.90;90.60;;;-0.02;56.76;97679.69;5008202;28;19967;-47
2022/03/07 00:33:16;;;;;;;;;;;0.80;90.50;;;-0.09;57.35;97680.50;5006791;28;19970;-45
2022/03/07 00:35:42;;;;;;;;;;;0.80;90.70;;;-0.17;57.83;97689.94;5003229;28;19917;-44
2022/03/07 00:38:08;;;;;;;;;;;0.70;90.80;;;-0.09;56.97;97678.78;5008287;28;19921;-44
2022/03/07 00:40:33;;;;;;;;;;;0.80;90.70;;;-0.17;57.19;97675.25;5008942;28;19913;-45
2022/03/07 00:42:59;;;;;;;;;;;0.70;91.00;;;-0.16;57.68;97679.59;5008699;28;19913;-45
2022/03/07 00:45:25;;;;;;;;;;;0.70;90.80;;;-0.15;57.87;97683.91;5005270;28;20022;-46
2022/03/07 00:47:51;;;;;;;;;;;0.70;91.00;;;-0.11;57.59;97685.66;5007957;28;19978;-46
2022/03/07 00:50:16;;;;;;;;;;;0.70;91.00;;;-0.06;57.81;97689.16;5006274;28;20214;-43
2022/03/07 00:52:42;;;;;;;;;;;0.70;91.10;;;-0.17;58.11;97688.19;5009195;28;20382;-40
2022/03/07 00:55:08;;;;;;;;;;;0.70;91.10;;;-0.23;58.19;97667.41;5008181;28;19975;-44
2022/03/07 00:57:34;;;;;;;;;;;0.70;91.20;;;-0.24;58.56;97683.81;5009434;28;19917;-45
2022/03/07 00:59:59;;;;;;;;;;;0.60;91.30;;;-0.29;58.71;97682.88;4991984;28;19955;-45
2022/03/07 01:02:25;;;;;;;;;;;0.60;91.30;;;-0.32;58.98;97685.44;5007038;28;19921;-44
2022/03/07 01:04:51;;;;;;;;;;;0.50;91.50;;;-0.36;58.96;97668.97;5008760;28;19917;-44
2022/03/07 01:07:16;;;;;;;;;;;0.50;91.50;;;-0.39;59.55;97680.19;5007656;28;20434;-43
2022/03/07 01:09:42;;;;;;;;;;;0.50;91.70;;;-0.32;59.38;97681.16;5009842;28;19943;-44
2022/03/07 01:12:08;;;;;;;;;;;0.50;91.70;;;-0.39;59.48;97685.38;5006857;28;20322;-46
2022/03/07 01:14:34;;;;;;;;;;;0.50;91.70;;;-0.40;59.71;97677.59;5005911;28;19944;-40
2022/03/07 01:16:59;;;;;;;;;;;0.50;91.80;;;-0.52;60.36;97687.81;5006019;28;20990;-43
2022/03/07 01:19:25;;;;;;;;;;;0.40;91.90;;;-0.27;59.03;97681.19;5008934;28;19917;-45
2022/03/07 01:21:51;;;;;;;;;;;0.50;91.70;;;-0.46;59.31;97683.56;5005614;28;19925;-46
2022/03/07 01:24:18;;;;;;;;;;;0.50;91.60;;;-0.47;59.92;97679.22;5004249;28;19913;-45
2022/03/07 01:26:45;;;;;;;;;;;0.40;91.80;;;-0.56;60.35;97673.94;5008438;28;19913;-44
2022/03/07 01:29:11;;;;;;;;;;;0.40;92.00;;;-0.61;60.67;97666.16;5004482;28;19930;-43
2022/03/07 01:31:37;;;;;;;;;;;0.30;92.10;;;-0.58;60.65;97673.94;5009588;28;19917;-42
2022/03/07 01:34:02;;;;;;;;;;;0.30;92.20;;;-0.60;61.02;97667.88;5009773;28;19917;-46
2022/03/07 01:36:28;;;;;;;;;;;0.30;92.30;;;-0.58;60.62;97668.75;5009122;28;20399;-44
2022/03/07 01:38:53;;;;;;;;;;;0.30;92.30;;;-0.64;61.06;97673.88;5007901;28;19916;-43
2022/03/07 01:41:19;;;;;;;;;;;0.20;92.30;;;-0.70;61.33;97662.56;5009097;28;19976;-45
2022/03/07 01:43:45;;;;;;;;;;;0.20;92.50;;;-0.73;61.07;97671.19;5011013;28;20409;-40
2022/03/07 01:46:10;;;;;;;;;;;0.20;92.40;;;-0.83;61.45;97672.78;5009145;28;19920;-46
2022/03/07 01:48:36;;;;;;;;;;;0.10;92.30;;;-0.80;61.16;97661.59;5001807;28;19924;-44
2022/03/07 01:51:02;;;;;;;;;;;0.10;92.40;;;-0.83;60.41;97677.09;5006122;28;19909;-46
2022/03/07 01:53:28;;;;;;;;;;;0.00;92.10;;;-0.90;60.46;97663.19;5008447;28;20342;-44
2022/03/07 01:55:56;;;;;;;;;;;0.00;92.00;;;-0.80;59.92;97661.59;5002381;28;19923;-41
2022/03/07 01:58:22;;;;;;;;;;;0.00;92.10;;;-0.97;60.37;97649.31;5009054;28;19917;-44
2022/03/07 02:00:48;;;;;;;;;;;0.00;91.90;;;-1.03;60.19;97656.13;5002995;28;19921;-43
2022/03/07 02:03:13;;;;;;;;;;;-0.10;92.10;;;-1.15;60.65;97649.06;5006818;28;19917;-47
2022/03/07 02:05:40;;;;;;;;;;;-0.20;92.10;;;-1.25;61.66;97652.41;5009384;28;19959;-42
2022/03/07 02:08:06;;;;;;;;;;;-0.30;92.40;;;-1.38;61.97;97653.94;5003871;28;19917;-40
2022/03/07 02:10:32;;;;;;;;;;;-0.40;92.60;;;-1.36;61.21;97645.34;5008484;28;19953;-45
2022/03/07 02:12:58;;;;;;;;;;;-0.50;92.40;;;-1.51;61.99;97654.59;5008438;28;19971;-44
2022/03/07 02:15:23;;;;;;;;;;;-0.60;92.60;;;-1.65;62.85;97651.78;5007160;28;20008;-44
2022/03/07 02:17:49;;;;;;;;;;;-0.70;92.90;;;-1.76;63.62;97649.94;5009361;28;19924;-46
2022/03/07 02:20:18;;;;;;;;;;;-0.80;93.30;;;-1.84;63.96;97651.50;5007491;28;20322;-42
2022/03/07 02:22:44;;;;;;;;;;;-0.90;93.30;;;-1.82;64.20;97644.66;5007896;28;20443;-43
2022/03/07 02:25:09;;;;;;;;;;;-1.00;93.60;;;-1.95;64.50;97632.38;5005797;28;20482;-41
2022/03/07 02:27:35;;;;;;;;;;;-1.00;93.60;;;-1.92;65.07;97641.06;5005699;28;19928;-42
2022/03/07 02:30:05;;;;;;;;;;;-1.10;93.90;;;-1.90;64.72;97641.09;5006655;28;19979;-40
2022/03/07 02:32:31;;;;;;;;;;;-1.00;93.90;;;-2.14;65.78;97637.22;5005661;28;19971;-45
2022/03/07 02:34:57;;;;;;;;;;;-1.10;94.00;;;-2.17;66.62;97639.78;5007203;28;19963;-47
2022/03/07 02:37:23;;;;;;;;;;;-1.30;94.30;;;-2.21;66.45;97643.13;5008903;28;19923;-42
2022/03/07 02:39:49;;;;;;;;;;;-1.30;94.40;;;-2.26;67.21;97641.31;5002644;28;20099;-45
2022/03/07 02:42:14;;;;;;;;;;;-1.30;95.00;;;-2.42;67.97;97642.75;5005553;28;20126;-47
2022/03/07 02:44:40;;;;;;;;;;;-1.40;94.70;;;-2.47;67.96;97641.84;5007644;28;20517;-41
2022/03/07 02:47:06;;;;;;;;;;;-1.50;94.90;;;-2.63;67.63;97641.53;5003431;28;19922;-44
2022/03/07 02:49:32;;;;;;;;;;;-1.60;94.70;;;-2.59;68.33;97635.56;5005106;28;20393;-45
2022/03/07 02:51:57;;;;;;;;;;;-1.60;94.90;;;-2.64;68.21;97642.34;5006827;28;19914;-40
2022/03/07 02:54:23;;;;;;;;;;;-1.70;94.90;;;-2.63;67.90;97635.50;5003742;28;19913;-44
2022/03/07 02:56:49;;;;;;;;;;;-1.70;94.90;;;-2.60;67.04;97646.75;5007597;28;20243;-42
2022/03/07 02:59:15;;;;;;;;;;;-1.70;94.70;;;-2.66;67.11;97633.72;4987281;28;19921;-41
2022/03/07 03:01:43;;;;;;;;;;;-1.70;94.70;;;-2.72;67.55;97646.53;5008185;28;20287;-44
2022/03/07 03:04:09;;;;;;;;;;;-1.70;94.70;;;-2.71;67.09;97636.22;5009901;28;20044;-45
2022/03/07 03:06:34;;;;;;;;;;;-1.80;94.60;;;-2.76;67.32;97643.00;5009433;28;19920;-47
2022/03/07 03:09:00;;;;;;;;;;;-1.80;94.70;;;-2.75;66.75;97641.28;5010120;28;20291;-47
2022/03/07 03:11:25;;;;;;;;;;;-1.80;94.60;;;-2.77;66.88;97643.84;5009085;28;19949;-45
2022/03/07 03:13:51;;;;;;;;;;;-1.80;94.60;;;-2.78;67.36;97652.44;5011899;28;20226;-41
2022/03/07 03:16:17;;;;;;;;;;;-1.80;94.80;;;-2.75;66.22;97649.03;5008558;28;19931;-39
2022/03/07 03:18:42;;;;;;;;;;;-1.80;94.60;;;-2.81;66.67;97647.22;5006803;28;19913;-43
2022/03/07 03:21:08;;;;;;;;;;;-1.90;94.60;;;-2.76;66.26;97645.59;5008006;28;19927;-45
2022/03/07 03:23:34;;;;;;;;;;;-1.80;94.60;;;-2.72;66.19;97637.06;5007682;28;20551;-44
2022/03/07 03:25:59;;;;;;;;;;;-1.80;94.90;;;-2.67;65.61;97637.16;5007381;28;19917;-45
2022/03/07 03:28:25;;;;;;;;;;;-1.80;94.40;;;-2.73;66.00;97648.25;5008884;28;19964;-39
2022/03/07 03:30:52;;;;;;;;;;;-1.80;94.50;;;-2.79;66.25;97650.69;5002350;28;20326;-41
2022/03/07 03:33:18;;;;;;;;;;;-1.80;94.60;;;-2.80;66.28;97650.66;5003956;28;20041;-43
2022/03/07 03:35:43;;;;;;;;;;;-1.90;94.60;;;-2.81;66.29;97656.69;5004262;28;19972;-40
2022/03/07 03:38:09;;;;;;;;;;;-1.90;94.60;;;-2.84;66.47;97654.03;5008577;28;20011;-44
2022/03/07 03:40:35;;;;;;;;;;;-1.90;94.60;;;-2.89;66.44;97654.81;5007194;28;19928;-46
2022/03/07 03:43:01;;;;;;;;;;;-1.90;94.70;;;-2.88;66.18;97651.38;5009874;28;20339;-39
2022/03/07 03:45:27;;;;;;;;;;;-2.00;94.60;;;-2.94;66.56;97653.84;5007108;28;19995;-45
2022/03/07 03:47:52;;;;;;;;;;;-1.90;94.70;;;-2.90;65.91;97655.63;5009553;28;19917;-38
2022/03/07 03:50:18;;;;;;;;;;;-2.00;94.60;;;-2.90;65.93;97644.44;5006083;28;20310;-44
2022/03/07 03:52:44;;;;;;;;;;;-1.90;94.60;;;-2.95;66.40;97658.97;5007784;28;19999;-42
2022/03/07 03:55:11;;;;;;;;;;;-2.00;94.60;;;-2.96;66.82;97658.09;5007487;28;19917;-44
2022/03/07 03:57:38;;;;;;;;;;;-2.00;94.90;;;-2.91;65.97;97659.06;5003368;28;19940;-37
2022/03/07 04:00:09;;;;;;;;;;;-2.00;94.70;;;-2.94;65.85;97653.84;5004070;28;19921;-47
2022/03/07 04:02:35;;;;;;;;;;;-2.00;94.50;;;-3.01;66.56;97657.13;5005467;28;19926;-46
2022/03/07 04:05:01;;;;;;;;;;;-2.00;94.80;;;-2.96;66.10;97660.69;5002402;28;19913;-47
2022/03/07 04:07:26;;;;;;;;;;;-2.00;94.60;;;-2.95;66.04;97664.13;5004666;28;19957;-46
2022/03/07 04:09:52;;;;;;;;;;;-2.00;94.70;;;-2.97;65.84;97658.94;5003119;28;20027;-43
2022/03/07 04:12:17;;;;;;;;;;;-2.00;94.60;;;-2.99;66.07;97652.88;5005736;28;20679;-44
2022/03/07 04:14:43;;;;;;;;;;;-2.00;94.70;;;-2.99;66.71;97652.00;5003538;28;19952;-45
2022/03/07 04:17:09;;;;;;;;;;;-2.10;94.80;;;-3.00;66.31;97648.53;5008083;28;19914;-41
2022/03/07 04:19:34;;;;;;;;;;;-2.10;94.80;;;-2.97;65.50;97640.88;5006879;28;19926;-48
2022/03/07 04:22:00;;;;;;;;;;;-2.00;94.60;;;-2.88;64.97;97653.09;5006714;28;20421;-44
2022/03/07 04:24:28;;;;;;;;;;;-2.00;94.40;;;-3.00;65.80;97642.53;5008719;28;20085;-45
2022/03/07 04:26:54;;;;;;;;;;;-2.00;94.50;;;-2.82;64.91;97649.75;5006635;28;19920;-47
2022/03/07 04:29:19;;;;;;;;;;;-1.90;94.40;;;-2.85;65.46;97653.16;5008242;28;20422;-44
2022/03/07 04:31:45;;;;;;;;;;;-1.90;94.50;;;-2.90;66.45;97658.22;5005316;28;19971;-45
2022/03/07 04:34:12;;;;;;;;;;;-1.90;94.80;;;-2.72;65.38;97659.44;5005284;28;19928;-44
2022/03/07 04:36:39;;;;;;;;;;;-1.80;94.70;;;-2.93;65.88;97640.09;5006271;28;19928;-44
2022/03/07 04:39:06;;;;;;;;;;;-1.80;94.70;;;-2.77;66.21;97668.78;4990598;28;19917;-45
2022/03/07 04:41:32;;;;;;;;;;;-1.80;94.90;;;-2.72;66.67;97657.72;5007590;28;19921;-45
2022/03/07 04:43:58;;;;;;;;;;;-1.80;95.00;;;-2.67;66.69;97668.16;5006501;28;19937;-41
2022/03/07 04:46:23;;;;;;;;;;;-1.70;95.10;;;-2.65;65.86;97663.88;5010141;28;19921;-45
2022/03/07 04:48:49;;;;;;;;;;;-1.70;94.80;;;-2.69;66.16;97668.09;5006542;28;19924;-44
2022/03/07 04:51:15;;;;;;;;;;;-1.70;94.80;;;-2.61;65.92;97667.38;5000955;28;20358;-48
2022/03/07 04:53:40;;;;;;;;;;;-1.70;94.90;;;-2.54;65.87;97677.84;5002501;28;19928;-41
2022/03/07 04:56:06;;;;;;;;;;;-1.60;94.90;;;-2.49;65.73;97677.97;5004406;28;20353;-50
2022/03/07 04:58:32;;;;;;;;;;;-1.60;94.80;;;-2.50;65.59;97669.31;5006752;28;20635;-44
2022/03/07 05:00:57;;;;;;;;;;;-1.50;94.80;;;-2.35;65.27;97681.66;5001025;28;20307;-44
2022/03/07 05:03:23;;;;;;;;;;;-1.50;94.80;;;-2.54;66.18;97677.84;5004171;28;19936;-45
2022/03/07 05:05:49;;;;;;;;;;;-1.50;94.80;;;-2.54;66.78;97677.84;5003244;28;20468;-44
2022/03/07 05:08:15;;;;;;;;;;;-1.60;95.10;;;-2.56;66.72;97682.13;5004205;28;19940;-44
2022/03/07 05:10:40;;;;;;;;;;;-1.60;95.10;;;-2.63;67.00;97680.25;5006667;28;19917;-47
2022/03/07 05:13:06;;;;;;;;;;;-1.60;95.20;;;-2.60;66.78;97682.91;5004748;28;19920;-44
2022/03/07 05:15:32;;;;;;;;;;;-1.60;95.20;;;-2.71;68.01;97674.97;5005830;28;19924;-44
2022/03/07 05:17:58;;;;;;;;;;;-1.60;95.50;;;-2.64;68.33;97675.94;5004696;28;19921;-46
2022/03/07 05:20:24;;;;;;;;;;;-1.60;95.70;;;-2.62;68.32;97689.75;5005171;28;19913;-46
2022/03/07 05:22:50;;;;;;;;;;;-1.60;95.80;;;-2.69;69.41;97688.75;5004914;28;19918;-45
2022/03/07 05:25:17;;;;;;;;;;;-1.60;96.00;;;-2.61;69.31;97691.50;5005006;28;19917;-48
2022/03/07 05:27:43;;;;;;;;;;;-1.60;96.20;;;-2.64;69.74;97690.56;5003641;28;19932;-44
2022/03/07 05:30:13;;;;;;;;;;;-1.60;96.30;;;-2.65;70.23;97694.00;5000355;28;19918;-42
2022/03/07 05:32:38;;;;;;;;;;;-1.60;96.50;;;-2.62;70.51;97692.34;5001396;28;19922;-45
2022/03/07 05:35:05;;;;;;;;;;;-1.60;96.70;;;-2.67;70.88;97691.38;5005933;28;19916;-44
2022/03/07 05:37:30;;;;;;;;;;;-1.70;96.70;;;-2.70;71.78;97699.06;5010381;28;20012;-45
2022/03/07 05:39:56;;;;;;;;;;;-1.70;97.00;;;-2.79;72.60;97702.31;5003515;28;20115;-45
2022/03/07 05:42:21;;;;;;;;;;;-1.70;97.20;;;-2.77;72.86;97702.34;5006967;28;19925;-43
2022/03/07 05:44:47;;;;;;;;;;;-1.70;97.50;;;-2.75;72.97;97703.25;5006487;28;20432;-44
2022/03/07 05:47:13;;;;;;;;;;;-1.80;97.60;;;-2.81;73.66;97697.97;5003315;28;20361;-44
2022/03/07 05:49:38;;;;;;;;;;;-1.80;97.70;;;-2.66;73.27;97711.19;5005372;28;19964;-48
2022/03/07 05:52:04;;;;;;;;;;;-1.70;97.80;;;-2.75;73.68;97692.94;4999091;28;19975;-46
2022/03/07 05:54:30;;;;;;;;;;;-1.70;97.80;;;-2.74;73.33;97705.88;5001569;28;19914;-44
2022/03/07 05:56:56;;;;;;;;;;;-1.70;97.80;;;-2.85;73.94;97697.03;5004560;28;19921;-45
2022/03/07 05:59:22;;;;;;;;;;;-1.70;98.00;;;-2.74;73.63;97702.44;5008476;28;19995;-44
2022/03/07 06:01:48;;;;;;;;;;;-1.70;98.00;;;-2.81;73.84;97693.69;4999215;28;19932;-45
2022/03/07 06:04:13;;;;;;;;;;;-1.70;98.10;;;-2.67;74.20;97700.81;5006805;28;19960;-46
2022/03/07 06:06:39;;;;;;;;;;;-1.70;98.30;;;-2.62;73.34;97704.38;5003102;28;20062;-42
2022/03/07 06:09:04;;;;;;;;;;;-1.70;98.10;;;-2.69;73.96;97708.56;5006444;28;20367;-44
2022/03/07 06:11:30;;;;;;;;;;;-1.70;98.20;;;-2.63;73.64;97718.13;5000767;28;19913;-45
2022/03/07 06:13:56;;;;;;;;;;;-1.70;98.20;;;-2.68;73.76;97715.44;5000347;28;19921;-48
2022/03/07 06:16:21;;;;;;;;;;;-1.60;98.20;;;-2.74;74.48;97713.63;5003011;28;19918;-44
2022/03/07 06:18:47;;;;;;;;;;;-1.70;98.40;;;-2.72;74.23;97718.81;5004794;28;20469;-45
2022/03/07 06:21:13;;;;;;;;;;;-1.70;98.40;;;-2.77;74.67;97716.13;5005525;28;19913;-43
2022/03/07 06:23:38;;;;;;;;;;;-1.70;98.60;;;-2.62;73.74;97710.41;5001884;28;20402;-45
2022/03/07 06:26:05;;;;;;;;;;;-1.70;98.40;;;-2.59;73.85;97710.47;5009809;28;20003;-43
2022/03/07 06:28:30;;;;;;;;;;;-1.70;98.50;;;-2.63;74.27;97712.97;5002753;28;19921;-44
2022/03/07 06:30:56;;;;;;;;;;;-1.60;98.60;;;-2.63;74.69;97707.81;4997935;28;20043;-45
2022/03/07 06:33:21;;;;;;;;;;;-1.60;98.80;;;-2.55;74.13;97711.38;4996887;28;20052;-42
2022/03/07 06:35:47;;;;;;;;;;;-1.60;98.70;;;-2.56;74.20;97704.50;5000149;28;19920;-49
2022/03/07 06:38:13;;;;;;;;;;;-1.50;98.70;;;-2.50;72.98;97700.31;5008368;28;19953;-47
2022/03/07 06:40:38;;;;;;;;;;;-1.60;98.50;;;-2.43;72.38;97703.88;5008484;28;19959;-47
2022/03/07 06:43:04;;;;;;;;;;;-1.50;98.30;;;-2.38;72.44;97704.00;5009295;28;19993;-47
2022/03/07 06:45:30;;;;;;;;;;;-1.50;98.30;;;-2.41;72.75;97707.38;5009000;28;19944;-46
2022/03/07 06:47:56;;;;;;;;;;;-1.50;98.40;;;-2.26;72.43;97711.97;5009386;28;20420;-48
2022/03/07 06:50:22;;;;;;;;;;;-1.40;98.40;;;-2.42;73.21;97708.22;5008126;28;19917;-44
2022/03/07 06:52:47;;;;;;;;;;;-1.40;98.40;;;-2.35;72.66;97709.19;5004057;28;19959;-45
2022/03/07 06:55:13;;;;;;;;;;;-1.40;98.40;;;-2.28;72.63;97716.22;5008543;28;20287;-45
2022/03/07 06:57:40;;;;;;;;;;;-1.30;98.40;;;-2.16;71.86;97713.84;5005909;28;21688;-45
2022/03/07 07:00:08;;;;;;;;;;;-1.30;98.30;;;-2.34;72.61;97714.38;5008218;28;19921;-45
2022/03/07 07:02:34;;;;;;;;;;;-1.40;98.40;;;-2.29;73.29;97718.78;5005990;28;20398;-44
2022/03/07 07:05:02;;;;;;;;;;;-1.40;98.70;;;-2.44;72.83;97724.50;5003671;28;20122;-46
2022/03/07 07:07:31;;;;;;;;;;;-1.40;98.40;;;-2.38;73.60;97729.81;5010378;28;19964;-44
2022/03/07 07:09:57;;;;;;;;;;;-1.40;98.70;;;-2.43;73.61;97724.56;5007655;28;19928;-45
2022/03/07 07:12:23;;;;;;;;;;;-1.40;98.80;;;-2.35;74.11;97730.75;4988971;28;20161;-43
2022/03/07 07:14:49;;;;;;;;;;;-1.40;99.00;;;-2.44;73.60;97733.16;5005754;28;20146;-43
2022/03/07 07:17:15;;;;;;;;;;;-1.40;98.80;;;-2.42;73.84;97733.16;5004627;28;19948;-43
2022/03/07 07:19:41;;;;;;;;;;;-1.40;98.90;;;-2.12;71.44;97744.09;5006326;28;19960;-45
2022/03/07 07:22:06;;;;;;;;;;;-1.30;98.60;;;-2.12;71.38;97740.63;5000860;28;20032;-43
2022/03/07 07:24:32;;;;;;;;;;;-1.20;98.30;;;-2.08;71.47;97738.97;5005725;28;19972;-44
2022/03/07 07:26:58;;;;;;;;;;;-1.10;98.30;;;-2.11;71.95;97747.56;5002171;28;19983;-44
2022/03/07 07:29:23;;;;;;;;;;;-1.10;98.40;;;-2.00;71.61;97751.19;5003830;28;19920;-45
2022/03/07 07:31:51;;;;;;;;;;;-1.00;98.40;;;-1.82;70.38;97755.81;5007741;28;19953;-38
2022/03/07 07:34:17;;;;;;;;;;;-0.90;98.10;;;-1.83;69.96;97758.38;5008283;28;19974;-42
2022/03/07 07:36:42;;;;;;;;;;;-0.80;97.80;;;-1.78;69.14;97757.63;5005566;28;19921;-47
2022/03/07 07:39:08;;;;;;;;;;;-0.80;97.60;;;-1.66;68.55;97750.94;5004321;28;20346;-47
2022/03/07 07:41:34;;;;;;;;;;;-0.70;97.50;;;-1.71;69.95;97745.66;5000532;28;20434;-47
2022/03/07 07:44:00;;;;;;;;;;;-0.70;97.70;;;-1.71;69.53;97743.09;5007515;28;19967;-42
2022/03/07 07:46:25;;;;;;;;;;;-0.70;97.70;;;-1.72;69.67;97759.47;5007075;28;19921;-46
2022/03/07 07:48:51;;;;;;;;;;;-0.70;97.70;;;-1.68;69.51;97765.56;4999626;28;20069;-46
2022/03/07 07:51:17;;;;;;;;;;;-0.70;97.60;;;-1.78;69.80;97760.19;5005338;28;19926;-44
2022/03/07 07:53:42;;;;;;;;;;;-0.70;97.70;;;-1.75;69.51;97762.84;5004574;28;19913;-46
2022/03/07 07:56:09;;;;;;;;;;;-0.70;97.70;;;-1.62;69.56;97756.16;5000705;28;19960;-46
2022/03/07 07:58:34;;;;;;;;;;;-0.70;97.70;;;-1.51;69.75;97758.06;4999283;28;19940;-46
2022/03/07 08:01:00;;;;;;;;;;;-0.60;98.00;;;-1.51;68.60;97769.28;5000569;28;20310;-42
2022/03/07 08:03:26;;;;;;;;;;;-0.60;97.40;;;-1.53;68.87;97773.56;5000206;28;19959;-43
2022/03/07 08:05:51;;;;;;;;;;;-0.50;97.50;;;-1.44;68.19;97773.72;5000869;28;20325;-46
2022/03/07 08:08:18;;;;;;;;;;;-0.50;97.30;;;-1.38;68.55;97776.41;5000199;28;19987;-44
2022/03/07 08:10:43;;;;;;;;;;;-0.40;97.50;;;-1.36;67.96;97784.19;5002128;28;20577;-43
2022/03/07 08:13:09;;;;;;;;;;;-0.40;97.20;;;-1.41;67.84;97783.25;5004650;28;19921;-48
2022/03/07 08:15:35;;;;;;;;;;;-0.40;97.10;;;-1.41;67.95;97784.13;5003446;28;20315;-47
2022/03/07 08:18:00;;;;;;;;;;;-0.30;97.20;;;-1.36;67.79;97781.63;5001220;28;20307;-44
2022/03/07 08:20:29;;;;;;;;;;;-0.30;97.10;;;-1.26;65.51;97790.38;4996262;28;20229;-43
2022/03/07 08:22:55;;;;;;;;;;;-0.30;96.50;;;-1.16;65.93;97793.13;5003266;28;19924;-47
2022/03/07 08:25:21;;;;;;;;;;;-0.20;96.50;;;-0.92;65.09;97796.09;5000708;28;19917;-47
2022/03/07 08:27:48;;;;;;;;;;;-0.10;96.40;;;-0.68;63.39;97795.56;4999804;28;19916;-46
2022/03/07 08:30:16;;;;;;;;;;;0.10;96.00;;;-0.58;62.49;97793.09;5001642;28;20268;-46
2022/03/07 08:32:41;;;;;;;;;;;0.30;95.70;;;-0.48;62.60;97788.06;5002819;28;20035;-46
2022/03/07 08:35:09;;;;;;;;;;;0.40;95.50;;;-0.32;61.77;97787.41;5007119;28;20059;-49
2022/03/07 08:37:35;;;;;;;;;;;0.50;95.30;;;-0.01;59.41;97792.94;5006455;28;20387;-46
2022/03/07 08:40:02;;;;;;;;;;;0.80;94.40;;;0.24;58.75;97785.44;4997963;28;20365;-47
2022/03/07 08:42:28;;;;;;;;;;;1.10;94.10;;;0.49;57.69;97796.91;5004559;28;20301;-47
2022/03/07 08:44:53;;;;;;;;;;;1.40;93.90;;;0.86;57.11;97792.91;5003342;28;19928;-44
2022/03/07 08:47:22;;;;;;;;;;;1.60;93.50;;;1.19;54.50;97790.56;5003954;28;19984;-48
2022/03/07 08:49:48;;;;;;;;;;;2.00;92.30;;;1.04;54.85;97797.38;5003969;28;19982;-44
2022/03/07 08:52:17;;;;;;;;;;;2.10;92.10;;;1.32;53.74;97792.34;5004881;28;20020;-44
2022/03/07 08:54:43;;;;;;;;;;;2.20;91.70;;;1.17;52.97;97806.13;5004720;28;19923;-45
2022/03/07 08:57:09;;;;;;;;;;;2.30;90.80;;;1.09;53.41;97803.44;5002234;28;20402;-45
2022/03/07 08:59:35;;;;;;;;;;;2.20;90.90;;;1.17;53.21;97800.94;5004963;28;19921;-48
2022/03/07 09:02:00;;;;;;;;;;;2.20;90.90;;;1.24;51.56;97807.00;5002078;28;19917;-46
2022/03/07 09:04:26;;;;;;;;;;;2.20;90.50;;;1.12;52.25;97800.88;5007156;28;19913;-46
2022/03/07 09:06:52;;;;;;;;;;;2.10;90.30;;;1.08;52.95;97811.25;5001697;28;19949;-43
2022/03/07 09:09:17;;;;;;;;;;;2.10;90.50;;;1.31;51.30;97804.50;5000359;28;19917;-44
2022/03/07 09:11:43;;;;;;;;;;;2.20;90.10;;;1.39;50.96;97804.53;5003030;28;19917;-44
2022/03/07 09:14:09;;;;;;;;;;;2.30;89.40;;;1.66;49.26;97810.72;5004913;28;19956;-47
2022/03/07 09:16:34;;;;;;;;;;;2.50;87.60;;;1.77;49.60;97814.25;5006021;28;19913;-45
2022/03/07 09:19:00;;;;;;;;;;;2.60;87.70;;;1.72;49.71;97813.34;5003242;28;19991;-43
2022/03/07 09:21:26;;;;;;;;;;;2.60;87.70;;;1.86;49.29;97810.81;4998470;28;20012;-41
2022/03/07 09:23:51;;;;;;;;;;;2.80;88.30;;;2.04;48.73;97816.09;5004375;28;20358;-47
2022/03/07 09:26:17;;;;;;;;;;;2.90;86.80;;;2.06;48.34;97801.38;5004791;28;20578;-44
2022/03/07 09:28:43;;;;;;;;;;;3.00;85.70;;;2.08;48.41;97815.25;5001784;28;19917;-46
2022/03/07 09:31:09;;;;;;;;;;;3.00;85.80;;;2.15;47.77;97821.31;5008519;28;20382;-45
2022/03/07 09:33:35;;;;;;;;;;;3.10;84.60;;;2.23;47.52;97818.78;5007981;28;19936;-44
2022/03/07 09:36:01;;;;;;;;;;;3.10;85.30;;;2.33;47.90;97820.50;5004079;28;20356;-44
2022/03/07 09:38:28;;;;;;;;;;;3.20;85.00;;;2.52;47.25;97823.19;5005431;28;19960;-45
2022/03/07 09:40:54;;;;;;;;;;;3.40;84.40;;;2.57;46.85;97817.09;5003239;28;19913;-44
2022/03/07 09:43:20;;;;;;;;;;;3.50;83.40;;;2.74;45.62;97818.84;5009380;28;19964;-47
2022/03/07 09:45:47;;;;;;;;;;;3.60;81.80;;;2.95;45.39;97825.81;5005692;28;20402;-48
2022/03/07 09:48:12;;;;;;;;;;;3.80;81.40;;;2.81;45.39;97826.66;5007243;28;19972;-45
2022/03/07 09:50:40;;;;;;;;;;;3.90;81.20;;;3.01;44.86;97828.41;5005495;28;20015;-42
2022/03/07 09:53:06;;;;;;;;;;;4.00;80.20;;;3.14;44.88;97822.34;5001218;28;19925;-47
2022/03/07 09:55:32;;;;;;;;;;;4.10;80.60;;;3.30;45.03;97824.91;5007740;28;19920;-44
2022/03/07 09:57:58;;;;;;;;;;;4.20;80.60;;;3.37;45.92;97830.13;5006592;28;19925;-47
2022/03/07 10:00:24;;;;;;;;;;;4.20;81.30;;;3.49;45.53;97828.38;5004200;28;20367;-43
2022/03/07 10:02:58;;;;;;;;;;;4.40;81.60;;;3.58;45.05;97829.22;5001060;28;19948;-45
2022/03/07 10:05:29;;;;;;;;;;;4.50;81.50;;;3.58;44.23;97824.00;5000951;28;20016;-45
2022/03/07 10:07:55;;;;;;;;;;;4.50;80.00;;;3.46;45.22;97830.97;5003769;28;20294;-44
2022/03/07 10:10:21;;;;;;;;;;;4.40;80.20;;;3.41;45.36;97830.97;5002721;28;19917;-45
2022/03/07 10:12:49;;;;;;;;;;;4.30;80.30;;;3.37;44.73;97835.34;5008239;28;20329;-44
2022/03/07 10:15:16;;;;;;;;;;;4.20;79.70;;;3.06;46.38;97829.28;5011832;28;20395;-48
2022/03/07 10:17:50;;;;;;;;;;;4.20;81.10;;;3.02;46.47;97830.16;5007064;28;19975;-47
2022/03/07 10:20:19;;;;;;;;;;;4.10;81.50;;;3.03;46.57;97834.50;5002025;28;19924;-42
2022/03/07 10:22:49;;;;;;;;;;;4.00;81.50;;;3.04;46.16;97838.84;5008015;28;19991;-45
2022/03/07 10:25:17;;;;;;;;;;;3.90;81.10;;;3.04;46.15;97837.09;5007965;28;19928;-38
2022/03/07 10:27:45;;;;;;;;;;;4.00;81.50;;;3.02;46.39;97835.38;4983511;28;19979;-47
2022/03/07 10:30:13;;;;;;;;;;;4.00;81.40;;;3.11;46.13;97837.97;5004882;28;19917;-45
2022/03/07 10:32:38;;;;;;;;;;;4.10;81.60;;;3.19;46.37;97837.97;5005881;28;19925;-47
2022/03/07 10:35:05;;;;;;;;;;;4.20;81.50;;;3.25;44.57;97841.44;5008266;28;20415;-45
2022/03/07 10:37:35;;;;;;;;;;;4.30;79.60;;;3.29;44.66;97838.84;5009180;28;20349;-46
2022/03/07 10:40:02;;;;;;;;;;;4.40;78.60;;;3.53;44.34;97833.56;5008804;28;19956;-46
2022/03/07 10:42:28;;;;;;;;;;;4.50;78.50;;;3.59;44.06;97838.78;5010068;28;19921;-46
2022/03/07 10:45:02;;;;;;;;;;;4.60;78.40;;;3.67;43.65;97811.81;5010231;28;20361;-44
2022/03/07 10:47:29;;;;;;;;;;;4.70;77.90;;;3.87;43.18;97832.63;5001711;28;19921;-47
2022/03/07 10:49:57;;;;;;;;;;;4.80;76.40;;;4.02;42.99;97824.75;5005275;28;19955;-45
2022/03/07 10:52:24;;;;;;;;;;;4.90;77.70;;;4.05;42.83;97824.72;5004937;28;19941;-39
2022/03/07 10:54:50;;;;;;;;;;;5.00;76.40;;;4.26;42.47;97821.16;5001448;28;19917;-45
2022/03/07 10:57:17;;;;;;;;;;;5.20;75.70;;;4.39;42.88;97817.59;5008541;28;20402;-44
2022/03/07 10:59:44;;;;;;;;;;;5.30;77.40;;;4.64;42.63;97817.44;5008418;28;19999;-45
2022/03/07 11:02:11;;;;;;;;;;;5.50;76.50;;;4.83;42.21;97815.56;5005759;28;19935;-47
2022/03/07 11:04:41;;;;;;;;;;;5.70;75.30;;;4.84;42.16;97819.91;5009376;28;19921;-45
2022/03/07 11:07:09;;;;;;;;;;;5.80;75.00;;;4.73;42.48;97811.28;5011311;28;19918;-43
2022/03/07 11:09:38;;;;;;;;;;;5.70;73.80;;;4.90;41.70;97817.25;5008342;28;19921;-48
2022/03/07 11:12:05;;;;;;;;;;;5.80;74.40;;;4.82;40.79;97815.59;5009607;28;19917;-40
2022/03/07 11:14:31;;;;;;;;;;;5.70;73.10;;;4.81;41.25;97812.13;5004822;28;19929;-44
2022/03/07 11:16:58;;;;;;;;;;;5.70;73.20;;;4.68;41.02;97802.59;4998776;28;20253;-46